createdAt,value
2019-03-15T00:01:21.722Z,2.57
2019-03-15T00:03:52.052Z,3.57
2019-03-15T00:06:22.416Z,3.33
2019-03-15T00:08:52.445Z,3.43
2019-03-15T00:11:22.490Z,3.10
2019-03-15T00:13:52.545Z,2.57
2019-03-15T00:16:22.657Z,2.73
2019-03-15T00:18:52.776Z,2.53
2019-03-15T00:21:22.889Z,2.70
2019-03-15T00:23:52.961Z,2.90
2019-03-15T00:26:23.203Z,2.27
2019-03-15T00:28:53.288Z,1.30
2019-03-15T00:31:24.846Z,2.30
2019-03-15T00:33:55.048Z,2.40
2019-03-15T00:36:25.098Z,2.60
2019-03-15T00:38:55.104Z,2.87
2019-03-15T00:41:25.272Z,3.00
2019-03-15T00:43:55.447Z,2.70
2019-03-15T00:46:25.960Z,2.23
2019-03-15T00:48:56.071Z,2.40
2019-03-15T00:51:26.090Z,2.57
2019-03-15T00:53:56.188Z,3.43
2019-03-15T00:56:26.172Z,3.23
2019-03-15T00:58:56.415Z,3.97
2019-03-15T01:01:26.718Z,2.10
2019-03-15T01:03:58.479Z,1.97
2019-03-15T01:06:28.701Z,2.57
2019-03-15T01:08:59.799Z,2.63
2019-03-15T01:11:29.836Z,2.50
2019-03-15T01:13:59.943Z,2.30
2019-03-15T01:16:29.972Z,3.10
2019-03-15T01:18:59.960Z,2.90
2019-03-15T01:21:29.992Z,2.27
2019-03-15T01:24:00.193Z,2.03
2019-03-15T01:26:30.332Z,2.20
2019-03-15T01:29:00.380Z,2.43
2019-03-15T01:31:31.650Z,2.63
2019-03-15T01:34:01.950Z,3.27
2019-03-15T01:36:32.184Z,2.93
2019-03-15T01:39:05.670Z,3.10
2019-03-15T01:41:35.700Z,3.37
2019-03-15T01:44:05.726Z,2.47
2019-03-15T01:46:35.804Z,3.13
2019-03-15T01:49:06.765Z,2.87
2019-03-15T01:51:36.777Z,2.30
2019-03-15T01:54:06.897Z,2.00
2019-03-15T01:56:36.895Z,2.03
2019-03-15T01:59:08.182Z,1.87
2019-03-15T02:01:38.274Z,1.97
2019-03-15T02:04:08.792Z,2.40
2019-03-15T02:06:38.844Z,2.27
2019-03-15T02:09:09.503Z,2.57
2019-03-15T02:11:39.689Z,2.17
2019-03-15T02:14:09.753Z,1.63
2019-03-15T02:16:39.853Z,1.93
2019-03-15T02:19:10.326Z,3.13
2019-03-15T02:21:40.553Z,1.93
2019-03-15T02:24:10.572Z,2.23
2019-03-15T02:26:40.603Z,1.97
2019-03-15T02:29:10.721Z,2.93
2019-03-15T02:31:40.724Z,1.97
2019-03-15T02:34:10.814Z,2.03
2019-03-15T02:36:43.104Z,2.20
2019-03-15T02:39:14.122Z,3.00
2019-03-15T02:41:44.210Z,1.93
2019-03-15T02:44:14.267Z,2.20
2019-03-15T02:46:45.302Z,1.63
2019-03-15T02:49:15.276Z,1.53
2019-03-15T02:51:46.378Z,1.90
2019-03-15T02:54:16.402Z,2.03
2019-03-15T02:56:46.459Z,2.00
2019-03-15T02:59:16.587Z,2.40
2019-03-15T03:01:46.711Z,2.43
2019-03-15T03:04:16.966Z,2.23
2019-03-15T03:06:47.112Z,2.60
2019-03-15T03:09:17.300Z,2.70
2019-03-15T03:11:47.492Z,2.97
2019-03-15T03:14:17.661Z,2.57
2019-03-15T03:16:47.878Z,2.20
2019-03-15T03:19:17.923Z,1.80
2019-03-15T03:21:47.957Z,2.23
2019-03-15T03:24:18.026Z,2.10
2019-03-15T03:26:48.035Z,2.10
2019-03-15T03:29:18.192Z,2.85
2019-03-15T03:31:48.236Z,1.80
2019-03-15T03:34:18.347Z,2.50
2019-03-15T03:36:48.443Z,1.73
2019-03-15T03:39:18.437Z,1.73
2019-03-15T03:41:48.444Z,2.23
2019-03-15T03:44:18.468Z,1.90
2019-03-15T03:46:48.601Z,2.10
2019-03-15T03:49:19.715Z,3.17
2019-03-15T03:51:49.764Z,2.57
2019-03-15T03:54:20.241Z,2.27
2019-03-15T03:56:50.506Z,1.80
2019-03-15T03:59:20.577Z,2.70
2019-03-15T04:01:50.652Z,2.20
2019-03-15T04:04:20.779Z,2.20
2019-03-15T04:06:50.899Z,2.60
2019-03-15T04:09:20.885Z,2.80
2019-03-15T04:11:55.750Z,1.93
2019-03-15T04:14:23.405Z,1.97
2019-03-15T04:16:53.663Z,2.83
2019-03-15T04:19:24.726Z,2.73
2019-03-15T04:21:55.161Z,2.37
2019-03-15T04:24:25.317Z,2.23
2019-03-15T04:26:55.314Z,2.60
2019-03-15T04:29:25.615Z,1.83
2019-03-15T04:31:55.825Z,2.90
2019-03-15T04:34:28.344Z,2.33
2019-03-15T04:36:57.632Z,2.70
2019-03-15T04:39:27.735Z,2.47
2019-03-15T04:41:57.723Z,2.20
2019-03-15T04:44:27.742Z,1.97
2019-03-15T04:46:57.756Z,2.33
2019-03-15T04:49:27.832Z,2.40
2019-03-15T04:51:57.881Z,2.33
2019-03-15T04:54:28.020Z,2.47
2019-03-15T04:56:58.323Z,2.00
2019-03-15T04:59:28.574Z,2.00
2019-03-15T05:01:58.633Z,2.00
2019-03-15T05:04:28.565Z,1.77
2019-03-15T05:06:58.913Z,2.27
2019-03-15T05:09:29.244Z,2.10
2019-03-15T05:11:59.269Z,2.23
2019-03-15T05:14:29.384Z,2.47
2019-03-15T05:16:59.352Z,2.00
2019-03-15T05:19:30.852Z,2.50
2019-03-15T05:22:01.077Z,2.53
2019-03-15T05:24:31.161Z,2.73
2019-03-15T05:27:01.563Z,2.13
2019-03-15T05:29:31.614Z,1.90
2019-03-15T05:32:01.733Z,2.17
2019-03-15T05:34:31.801Z,2.93
2019-03-15T05:37:02.041Z,2.63
2019-03-15T05:39:32.096Z,1.97
2019-03-15T05:42:02.832Z,2.33
2019-03-15T05:44:32.880Z,2.23
2019-03-15T05:47:03.775Z,2.47
2019-03-15T05:49:34.112Z,2.60
2019-03-15T05:52:04.541Z,1.30
2019-03-15T05:54:34.560Z,2.47
2019-03-15T05:57:04.624Z,2.03
2019-03-15T05:59:34.756Z,2.33
2019-03-15T06:02:04.794Z,2.20
2019-03-15T06:04:34.917Z,2.57
2019-03-15T06:07:04.962Z,2.37
2019-03-15T06:09:34.946Z,2.90
2019-03-15T06:12:04.929Z,1.83
2019-03-15T06:14:35.257Z,3.37
2019-03-15T06:17:05.456Z,2.63
2019-03-15T06:19:35.645Z,2.50
2019-03-15T06:22:05.696Z,2.27
2019-03-15T06:24:35.716Z,3.40
2019-03-15T06:27:05.831Z,2.67
2019-03-15T06:29:35.802Z,2.40
2019-03-15T06:32:06.071Z,2.70
2019-03-15T06:34:39.210Z,2.60
2019-03-15T06:37:07.842Z,2.47
2019-03-15T06:39:37.899Z,2.00
2019-03-15T06:42:07.930Z,2.13
2019-03-15T06:44:38.099Z,2.37
2019-03-15T06:47:08.150Z,2.83
2019-03-15T06:49:38.344Z,2.77
2019-03-15T06:52:08.513Z,2.70
2019-03-15T06:54:38.607Z,2.33
2019-03-15T06:57:08.649Z,2.67
2019-03-15T06:59:38.791Z,3.13
2019-03-15T07:02:08.842Z,2.73
2019-03-15T07:04:38.995Z,2.63
2019-03-15T07:07:09.252Z,2.37
2019-03-15T07:09:40.475Z,2.77
2019-03-15T07:12:11.540Z,3.30
2019-03-15T07:14:42.372Z,3.07
2019-03-15T07:17:12.693Z,2.77
2019-03-15T07:19:54.578Z,3.37
2019-03-15T07:22:24.810Z,3.17
2019-03-15T07:24:54.807Z,2.63
2019-03-15T07:27:24.902Z,2.57
2019-03-15T07:29:55.657Z,3.60
2019-03-15T07:32:25.762Z,3.10
2019-03-15T07:34:55.970Z,4.33
2019-03-15T07:37:27.161Z,4.23
2019-03-15T07:39:57.329Z,3.20
2019-03-15T07:42:27.397Z,4.30
2019-03-15T07:44:57.522Z,3.73
2019-03-15T07:47:27.674Z,3.07
2019-03-15T07:49:57.667Z,2.33
2019-03-15T07:52:27.855Z,2.60
2019-03-15T07:54:59.475Z,3.40
2019-03-15T07:57:29.529Z,2.87
2019-03-15T07:59:59.524Z,3.10
2019-03-15T08:02:29.641Z,3.07
2019-03-15T08:04:59.614Z,3.80
2019-03-15T08:07:36.128Z,2.50
2019-03-15T08:10:01.419Z,3.13
2019-03-15T08:12:31.539Z,3.13
2019-03-15T08:15:01.613Z,4.60
2019-03-15T08:17:32.910Z,2.93
2019-03-15T08:20:03.936Z,3.17
2019-03-15T08:22:33.930Z,3.50
2019-03-15T08:25:04.532Z,3.80
2019-03-15T08:27:35.589Z,3.80
2019-03-15T08:30:06.529Z,3.63
2019-03-15T08:32:36.615Z,3.07
2019-03-15T08:35:07.195Z,2.73
2019-03-15T08:37:37.296Z,3.17
2019-03-15T08:40:07.932Z,3.87
2019-03-15T08:42:38.004Z,3.73
2019-03-15T08:45:09.311Z,3.70
2019-03-15T08:47:39.504Z,3.77
2019-03-15T08:50:10.693Z,3.50
2019-03-15T08:52:42.140Z,3.43
2019-03-15T08:55:12.634Z,3.40
2019-03-15T08:57:42.778Z,3.00
2019-03-15T09:00:12.946Z,3.13
2019-03-15T09:02:43.007Z,3.10
2019-03-15T09:05:13.215Z,3.10
2019-03-15T09:07:43.364Z,2.40
2019-03-15T09:10:22.378Z,3.03
2019-03-15T09:12:47.408Z,2.33
2019-03-15T09:15:17.520Z,2.67
2019-03-15T09:17:47.715Z,3.03
2019-03-15T09:20:18.177Z,3.30
2019-03-15T09:22:48.205Z,3.03
2019-03-15T09:25:20.494Z,3.70
2019-03-15T09:27:50.904Z,4.03
2019-03-15T09:30:24.424Z,3.37
2019-03-15T09:32:54.432Z,3.97
2019-03-15T09:35:24.523Z,3.70
2019-03-15T09:37:54.609Z,3.67
2019-03-15T09:40:25.883Z,4.60
2019-03-15T09:42:59.704Z,4.97
2019-03-15T09:45:28.291Z,3.83
2019-03-15T09:47:58.436Z,4.53
2019-03-15T09:50:36.120Z,4.13
2019-03-15T09:53:01.823Z,4.37
2019-03-15T09:55:33.511Z,4.60
2019-03-15T09:58:04.570Z,4.60
2019-03-15T10:00:34.570Z,4.13
2019-03-15T10:03:04.666Z,4.30
2019-03-15T10:05:34.753Z,3.83
2019-03-15T10:08:04.769Z,4.07
2019-03-15T10:10:34.821Z,4.37
2019-03-15T10:13:06.375Z,4.17
2019-03-15T10:15:36.609Z,4.13
2019-03-15T10:18:06.701Z,3.60
2019-03-15T10:20:36.808Z,3.67
2019-03-15T10:23:06.832Z,3.93
2019-03-15T10:25:46.826Z,3.00
2019-03-15T10:28:08.569Z,3.23
2019-03-15T10:30:38.695Z,4.13
2019-03-15T10:33:10.015Z,3.73
2019-03-15T10:35:42.528Z,3.13
2019-03-15T10:38:16.542Z,3.60
2019-03-15T10:40:45.350Z,3.87
2019-03-15T10:43:15.334Z,3.83
2019-03-15T10:45:45.364Z,3.80
2019-03-15T10:48:25.308Z,3.57
2019-03-15T10:50:47.234Z,3.87
2019-03-15T10:53:17.268Z,3.80
2019-03-15T10:55:59.706Z,3.23
2019-03-15T10:58:22.000Z,3.57
2019-03-15T11:00:52.137Z,3.40
2019-03-15T11:03:22.306Z,3.30
2019-03-15T11:05:52.392Z,3.17
2019-03-15T11:08:24.228Z,2.97
2019-03-15T11:10:54.183Z,2.57
2019-03-15T11:13:24.247Z,3.07
2019-03-15T11:15:54.289Z,2.37
2019-03-15T11:18:24.498Z,3.83
2019-03-15T11:20:56.599Z,2.57
2019-03-15T11:23:26.775Z,2.53
2019-03-15T11:25:56.909Z,3.03
2019-03-15T11:28:27.086Z,3.40
2019-03-15T11:31:00.522Z,2.53
2019-03-15T11:33:29.017Z,2.03
2019-03-15T11:35:59.171Z,2.33
2019-03-15T11:38:29.229Z,1.70
2019-03-15T11:40:59.193Z,1.10
2019-03-15T11:43:29.261Z,2.90
2019-03-15T11:45:59.339Z,2.90
2019-03-15T11:48:29.484Z,2.03
2019-03-15T11:50:59.567Z,2.63
2019-03-15T11:53:29.523Z,1.70
2019-03-15T11:56:00.467Z,1.93
2019-03-15T11:58:30.462Z,1.50
2019-03-15T12:01:00.438Z,2.23
2019-03-15T12:03:30.514Z,2.63
2019-03-15T12:06:00.499Z,2.37
2019-03-15T12:08:30.485Z,2.00
2019-03-15T12:11:00.623Z,2.40
2019-03-15T12:13:30.690Z,2.10
2019-03-15T12:16:00.809Z,2.17
2019-03-15T12:18:30.789Z,1.87
2019-03-15T12:21:00.823Z,2.23
2019-03-15T12:23:30.846Z,1.70
2019-03-15T12:26:00.916Z,2.10
2019-03-15T12:28:30.909Z,1.83
2019-03-15T12:31:00.854Z,1.40
2019-03-15T12:33:30.868Z,1.70
2019-03-15T12:36:03.353Z,1.60
2019-03-15T12:38:33.010Z,1.93
2019-03-15T12:41:03.133Z,1.87
2019-03-15T12:43:33.113Z,4.43
2019-03-15T12:46:03.926Z,2.37
2019-03-15T12:48:33.994Z,1.80
2019-03-15T12:51:05.122Z,1.40
2019-03-15T12:53:35.184Z,2.10
2019-03-15T12:56:05.220Z,1.97
2019-03-15T12:58:35.317Z,2.20
2019-03-15T13:01:05.405Z,1.73
2019-03-15T13:03:35.422Z,1.57
2019-03-15T13:06:06.673Z,1.40
2019-03-15T13:08:36.678Z,1.87
2019-03-15T13:11:06.769Z,1.60
2019-03-15T13:13:36.843Z,1.83
2019-03-15T13:16:06.907Z,1.87
2019-03-15T13:18:36.999Z,1.97
2019-03-15T13:21:08.025Z,1.13
2019-03-15T13:23:38.048Z,1.50
2019-03-15T13:26:08.059Z,1.73
2019-03-15T13:28:38.079Z,2.07
2019-03-15T13:31:08.089Z,1.17
2019-03-15T13:33:38.082Z,1.20
2019-03-15T13:36:08.148Z,1.30
2019-03-15T13:38:38.156Z,1.93
2019-03-15T13:41:08.143Z,1.47
2019-03-15T13:43:39.177Z,1.30
2019-03-15T13:46:09.229Z,2.07
2019-03-15T13:48:39.266Z,1.30
2019-03-15T13:51:10.260Z,1.00
2019-03-15T13:53:40.345Z,0.73
2019-03-15T13:56:10.369Z,1.30
2019-03-15T13:58:40.418Z,1.30
2019-03-15T14:01:10.531Z,1.13
2019-03-15T14:03:40.592Z,1.37
2019-03-15T14:06:10.573Z,1.10
2019-03-15T14:08:40.599Z,1.50
2019-03-15T14:11:10.703Z,1.60
2019-03-15T14:13:40.771Z,1.40
2019-03-15T14:16:11.993Z,2.67
2019-03-15T14:18:42.098Z,1.00
2019-03-15T14:21:12.692Z,1.70
2019-03-15T14:23:42.674Z,1.30
2019-03-15T14:26:12.824Z,0.90
2019-03-15T14:28:43.866Z,1.10
2019-03-15T14:31:13.943Z,0.70
2019-03-15T14:33:43.971Z,1.43
2019-03-15T14:36:14.112Z,1.33
2019-03-15T14:38:44.444Z,1.07
2019-03-15T14:41:14.699Z,1.50
2019-03-15T14:43:45.101Z,1.20
2019-03-15T14:46:15.343Z,1.20
2019-03-15T14:48:45.352Z,0.83
2019-03-15T14:51:15.602Z,1.07
2019-03-15T14:53:45.767Z,0.70
2019-03-15T14:56:15.815Z,1.70
2019-03-15T14:58:45.980Z,0.90
2019-03-15T15:01:16.941Z,1.07
2019-03-15T15:03:47.196Z,0.93
2019-03-15T15:06:17.316Z,1.07
2019-03-15T15:08:47.693Z,0.93
2019-03-15T15:11:17.954Z,0.90
2019-03-15T15:13:48.003Z,1.60
2019-03-15T15:16:18.023Z,1.10
2019-03-15T15:18:48.318Z,1.27
2019-03-15T15:21:18.635Z,1.07
2019-03-15T15:23:48.812Z,1.17
2019-03-15T15:26:18.921Z,1.33
2019-03-15T15:28:48.966Z,0.77
2019-03-15T15:31:19.104Z,1.40
2019-03-15T15:33:49.512Z,0.60
2019-03-15T15:36:19.806Z,0.90
2019-03-15T15:38:49.981Z,1.33
2019-03-15T15:41:19.929Z,1.03
2019-03-15T15:43:50.521Z,1.77
2019-03-15T15:46:20.592Z,1.60
2019-03-15T15:48:51.060Z,1.00
2019-03-15T15:51:21.199Z,1.27
2019-03-15T15:53:52.790Z,0.50
2019-03-15T15:56:23.122Z,1.20
2019-03-15T15:58:53.129Z,2.13
2019-03-15T16:01:23.175Z,1.80
2019-03-15T16:03:58.146Z,1.37
2019-03-15T16:06:29.860Z,1.50
2019-03-15T16:08:59.835Z,1.20
2019-03-15T16:11:29.791Z,1.50
2019-03-15T16:13:59.929Z,0.93
2019-03-15T16:16:30.047Z,1.03
2019-03-15T16:19:01.401Z,1.70
2019-03-15T16:21:31.597Z,1.40
2019-03-15T16:24:01.684Z,1.97
2019-03-15T16:26:31.774Z,2.23
2019-03-15T16:29:01.809Z,1.40
2019-03-15T16:31:32.058Z,1.13
2019-03-15T16:34:02.347Z,1.70
2019-03-15T16:36:32.314Z,1.70
2019-03-15T16:39:02.445Z,1.20
2019-03-15T16:41:33.549Z,1.00
2019-03-15T16:44:04.373Z,1.55
2019-03-15T16:46:34.481Z,1.87
2019-03-15T16:49:04.564Z,1.90
2019-03-15T16:51:34.634Z,1.50
2019-03-15T16:54:04.717Z,1.63
2019-03-15T16:56:35.287Z,1.63
2019-03-15T16:59:05.611Z,2.30
2019-03-15T17:01:35.662Z,5.53
2019-03-15T17:04:05.847Z,2.23
2019-03-15T17:06:35.829Z,1.73
2019-03-15T17:09:06.528Z,1.40
2019-03-15T17:11:36.690Z,1.80
2019-03-15T17:14:06.753Z,1.60
2019-03-15T17:16:36.881Z,1.57
2019-03-15T17:19:06.902Z,0.83
2019-03-15T17:21:37.003Z,1.33
2019-03-15T17:24:07.092Z,2.17
2019-03-15T17:26:37.183Z,1.83
2019-03-15T17:29:07.597Z,1.93
2019-03-15T17:31:37.766Z,1.37
2019-03-15T17:34:07.858Z,1.60
2019-03-15T17:36:37.921Z,1.53
2019-03-15T17:39:07.920Z,1.67
2019-03-15T17:41:37.922Z,1.50
2019-03-15T17:44:08.006Z,1.30
2019-03-15T17:46:38.157Z,2.20
2019-03-15T17:49:08.150Z,1.53
2019-03-15T17:51:38.167Z,1.57
2019-03-15T17:54:08.239Z,1.30
2019-03-15T17:56:38.266Z,1.40
2019-03-15T17:59:12.763Z,2.03
2019-03-15T18:01:39.976Z,1.40
2019-03-15T18:04:10.020Z,1.60
2019-03-15T18:06:40.223Z,2.07
2019-03-15T18:09:11.466Z,2.63
2019-03-15T18:11:41.496Z,1.80
2019-03-15T18:14:11.546Z,2.03
2019-03-15T18:16:41.504Z,1.73
2019-03-15T18:19:11.476Z,2.93
2019-03-15T18:21:41.440Z,1.20
2019-03-15T18:24:11.490Z,1.83
2019-03-15T18:26:41.438Z,1.10
2019-03-15T18:29:11.491Z,1.70
2019-03-15T18:31:41.613Z,1.73
2019-03-15T18:34:12.967Z,1.90
2019-03-15T18:36:43.306Z,1.07
2019-03-15T18:39:14.934Z,1.80
2019-03-15T18:41:45.055Z,1.33
2019-03-15T18:44:16.111Z,2.00
2019-03-15T18:46:46.079Z,1.80
2019-03-15T18:49:18.588Z,1.60
2019-03-15T18:51:47.826Z,2.50
2019-03-15T18:54:18.111Z,1.43
2019-03-15T18:56:48.130Z,1.53
2019-03-15T18:59:18.113Z,1.60
2019-03-15T19:01:48.138Z,1.67
2019-03-15T19:04:18.136Z,1.20
2019-03-15T19:06:48.089Z,2.70
2019-03-15T19:09:18.146Z,1.73
2019-03-15T19:11:48.215Z,1.53
2019-03-15T19:14:18.213Z,1.97
2019-03-15T19:16:48.245Z,2.40
2019-03-15T19:19:19.746Z,1.53
2019-03-15T19:21:49.733Z,3.20
2019-03-15T19:24:19.744Z,2.30
2019-03-15T19:26:49.733Z,1.90
2019-03-15T19:29:19.818Z,1.40
2019-03-15T19:31:52.822Z,1.93
2019-03-15T19:34:22.849Z,1.47
2019-03-15T19:36:52.862Z,2.43
2019-03-15T19:39:22.827Z,1.80
2019-03-15T19:41:52.873Z,1.70
2019-03-15T19:44:23.149Z,1.83
2019-03-15T19:46:53.186Z,1.30
2019-03-15T19:49:23.288Z,1.80
2019-03-15T19:51:53.369Z,1.93
2019-03-15T19:54:23.528Z,1.83
2019-03-15T19:56:53.700Z,1.90
2019-03-15T19:59:23.690Z,2.20
2019-03-15T20:01:53.765Z,1.63
2019-03-15T20:04:23.848Z,2.03
2019-03-15T20:06:54.260Z,1.50
2019-03-15T20:09:24.223Z,1.40
2019-03-15T20:11:54.257Z,1.10
2019-03-15T20:14:24.296Z,2.23
2019-03-15T20:16:54.352Z,1.97
2019-03-15T20:19:24.478Z,1.97
2019-03-15T20:21:55.671Z,1.80
2019-03-15T20:24:25.844Z,1.20
2019-03-15T20:26:55.945Z,1.73
2019-03-15T20:29:25.953Z,1.90
2019-03-15T20:31:56.018Z,1.67
2019-03-15T20:34:26.092Z,2.03
2019-03-15T20:36:57.321Z,1.67
2019-03-15T20:39:27.351Z,1.57
2019-03-15T20:41:57.451Z,1.67
2019-03-15T20:44:28.665Z,1.83
2019-03-15T20:47:00.233Z,1.67
2019-03-15T20:49:30.288Z,1.40
2019-03-15T20:52:00.308Z,1.13
2019-03-15T20:54:30.336Z,1.37
2019-03-15T20:57:00.312Z,1.70
2019-03-15T20:59:30.291Z,1.67
2019-03-15T21:02:00.346Z,1.90
2019-03-15T21:04:30.351Z,1.53
2019-03-15T21:07:00.433Z,1.43
2019-03-15T21:09:30.447Z,2.83
2019-03-15T21:12:00.425Z,1.70
2019-03-15T21:14:30.757Z,1.90
2019-03-15T21:17:00.966Z,2.60
2019-03-15T21:19:30.986Z,1.90
2019-03-15T21:22:01.117Z,1.90
2019-03-15T21:24:31.380Z,1.80
2019-03-15T21:27:01.863Z,1.23
2019-03-15T21:29:33.197Z,1.50
2019-03-15T21:32:07.390Z,1.90
2019-03-15T21:34:37.883Z,1.67
2019-03-15T21:37:10.471Z,2.20
2019-03-15T21:39:42.756Z,1.57
2019-03-15T21:42:12.783Z,1.17
2019-03-15T21:44:42.908Z,1.87
2019-03-15T21:47:12.993Z,2.03
2019-03-15T21:49:43.135Z,2.07
2019-03-15T21:52:15.295Z,1.23
2019-03-15T21:54:47.507Z,1.53
2019-03-15T21:57:20.175Z,1.33
2019-03-15T21:59:50.412Z,1.97
2019-03-15T22:02:20.557Z,1.70
2019-03-15T22:04:50.568Z,1.80
2019-03-15T22:07:20.611Z,1.67
2019-03-15T22:09:50.681Z,2.00
2019-03-15T22:12:22.566Z,1.87
2019-03-15T22:14:52.596Z,1.50
2019-03-15T22:17:23.513Z,1.33
2019-03-15T22:19:54.792Z,1.20
2019-03-15T22:22:24.950Z,1.50
2019-03-15T22:24:54.960Z,1.67
2019-03-15T22:27:25.067Z,2.70
2019-03-15T22:29:55.575Z,1.93
2019-03-15T22:32:26.198Z,2.13
2019-03-15T22:34:56.276Z,0.93
2019-03-15T22:37:26.264Z,2.50
2019-03-15T22:39:56.332Z,1.37
2019-03-15T22:42:26.442Z,2.40
2019-03-15T22:44:56.528Z,1.50
2019-03-15T22:47:26.624Z,2.80
2019-03-15T22:49:56.836Z,2.07
2019-03-15T22:52:26.824Z,2.60
2019-03-15T22:54:56.870Z,2.30
2019-03-15T22:57:26.928Z,1.57
2019-03-15T22:59:56.898Z,1.57
2019-03-15T23:02:26.980Z,1.90
2019-03-15T23:04:57.112Z,1.87
2019-03-15T23:07:27.236Z,1.57
2019-03-15T23:09:57.285Z,2.63
2019-03-15T23:12:27.255Z,1.47
2019-03-15T23:14:58.202Z,1.97
2019-03-15T23:17:28.406Z,1.75
2019-03-15T23:19:59.001Z,1.73
2019-03-15T23:22:29.216Z,1.70
2019-03-15T23:24:59.287Z,2.23
2019-03-15T23:27:29.274Z,1.27
2019-03-15T23:29:59.271Z,2.23
2019-03-15T23:32:29.314Z,1.73
2019-03-15T23:34:59.356Z,2.17
2019-03-15T23:37:29.439Z,2.00
2019-03-15T23:39:59.585Z,2.20
2019-03-15T23:42:29.628Z,1.87
2019-03-15T23:44:59.644Z,1.77
2019-03-15T23:47:29.714Z,1.90
2019-03-15T23:50:00.761Z,1.90
2019-03-15T23:52:31.041Z,1.83
2019-03-15T23:55:01.123Z,2.13
2019-03-15T23:57:31.119Z,1.80
